Rensselaer, Indiana
Current Conditions -  °F | °C
As of 3:55 PM on Thursday 27 Nov 2014 (Local Time) from KRZL Reporting Station
Light Snow Light Snow  
Wind Chill: 17°   Ceiling: 2800
Heat Index: 28°   Visibility: 10mi
Dew Point: 23°   Wind: 14mph
Humidity: 80%   Direction: 290°WNW
Pressure: 30.38"   Gusts: 17mph
Location:  40.94°N, 87.15°W
Report Text: KRZL 272155Z AUTO 29012G15KT 10SM -SN BKN028 OVC034 M02/M05 A3038 RMK AO2
Loading
Personal Weather Stations






























Interactive Weather Map New forecast layout! Learn more

10-Day Weather Forecast

Advertisements
Track Severe Weather on mobile